Ranchos De Taos, NM (87557)

11:45 AM MDT on March 28, 2015 (GMT -0600)
Weimer Foothills-Bob/Jo Freese | | Change Station
CLOSE
Current Station
Personal Weather Station
Location: Ranchos De Taos, NM
Elevation: 7238 ft
Nearby Weather Stations

Elev 7238 ft 36.36 °N, 105.57 °W | Updated 2 minutes ago

Clear
Clear
60.7 °F
Feels Like 60.7 °F
N
2.0
Wind Variable Wind from West
Gusts 6.0 mph

Today
High -- | Low -- °F
--% Chance of Precip.
Yesterday
High -- | Low -- °F
Precip. -- in
6:54 AM 7:20 PM
Waxing Gibbous, 64% visible
Pressure 30.30 in
Visibility 10.0 miles
Clouds Clear
Dew Point 26 °F
Humidity 27%
Rainfall 0.00 in
Snow Depth Not available.
UV 8 out of 12
Pollen 11.40 out of 12
Air Quality Not available.
Flu Activity Not available.
METAR KSKX 281735Z AUTO 24004KT 10SM CLR 15/M04 A3030 RMK AO1

More Conditions Fewer Conditions

Pressure 30.30 in
Visibility 10.0 miles
Clouds Clear
Dew Point 26 °F
Humidity 27%
Rainfall 0.00 in
Snow Depth Not available.
UV 8 out of 12
Pollen 11.40 out of 12
Air Quality Not available.
Flu Activity Not available.
METAR KSKX 281735Z AUTO 24004KT 10SM CLR 15/M04 A3030 RMK AO1

More Conditions Fewer Conditions

10-Day Weather Forecast

Almanac

Astronomy

Mar. 28, 2015 Rise Set
Actual Time
Civil Twilight
Nautical Twilight
Astronomical Twilight
Moon
Length of Visible Light
Length of Day
Tomorrow will be .
, % of the Moon is Illuminated

Today's Extremes

State Highs State Lows

Community

WunderPhotos

Upload Photos

1,809,034 photos uploaded!

WunderBlogs® & News

Nearby

Air Quality

  Air Quality AQ Index Pollutant
Not available.

Snow Depth

Station Depth Elevation

Earthquake Activity

City Distance Mag. Time & Date
Minimum magnitude displayed is 2.5.

Coastal Water Temperatures

Place Temperature

Stations

Nearby Weather Stations

Station Location Temp. Windchill Dew Point Humidity Wind Precip. Elev Updated Type